Time;durP1;ratioP1;P1;durP2;ratioP2;P2;SDS_P1;SDS_P2;PMS_P1;PMS_P2;Temp;Humidity;BMP_temperature;BMP_pressure;BME280_temperature;BME280_humidity;BME280_pressure;Samples;Min_cycle;Max_cycle;Signal;HPM_P1;HPM_P2
2023/03/10 00:01:32;;;;;;;0.00;0.00;;;0.50;99.90;;;;;;5049509;28;20107;-87
2023/03/10 00:03:59;;;;;;;0.75;0.75;;;1.60;99.90;;;;;;5050891;28;20487;-86
2023/03/10 00:06:28;;;;;;;1.23;1.13;;;0.50;99.90;;;;;;5049564;28;20052;-87
2023/03/10 00:08:55;;;;;;;0.60;0.60;;;0.50;99.90;;;;;;5050667;28;20521;-87
2023/03/10 00:11:21;;;;;;;0.22;0.22;;;0.50;99.90;;;;;;5049018;28;20053;-87
2023/03/10 00:13:47;;;;;;;0.73;0.73;;;0.50;99.90;;;;;;5050031;28;20103;-87
2023/03/10 00:16:22;;;;;;;0.80;0.75;;;0.50;99.90;;;;;;5049433;28;20372;-86
2023/03/10 00:18:48;;;;;;;0.37;0.37;;;0.50;99.90;;;;;;5050123;28;20110;-87
2023/03/10 00:21:23;;;;;;;0.75;0.75;;;0.50;99.90;;;;;;5082482;28;20310;-86
2023/03/10 00:23:49;;;;;;;0.17;0.17;;;0.50;99.90;;;;;;5050177;28;20055;-86
2023/03/10 00:26:17;;;;;;;1.58;1.35;;;0.50;99.90;;;;;;5048646;28;20044;-86
2023/03/10 00:28:43;;;;;;;1.25;0.70;;;0.50;99.90;;;;;;5047909;28;20477;-86
2023/03/10 00:31:14;;;;;;;8.35;0.98;;;0.50;99.90;;;;;;5049074;28;20041;-86
2023/03/10 00:33:39;;;;;;;0.10;0.10;;;0.50;99.90;;;;;;5047345;28;20044;-86
2023/03/10 00:36:10;;;;;;;0.57;0.57;;;0.50;99.90;;;;;;5048308;28;20041;-86
2023/03/10 00:38:36;;;;;;;0.10;0.10;;;0.50;99.90;;;;;;5048122;28;20128;-86
2023/03/10 00:41:05;;;;;;;0.20;0.20;;;0.50;99.90;;;;;;5046312;28;20059;-86
2023/03/10 00:43:31;;;;;;;0.10;0.10;;;0.50;99.90;;;;;;5048069;28;20033;-86
2023/03/10 00:45:56;;;;;;;1.80;0.85;;;0.50;99.90;;;;;;5047276;28;20053;-85
2023/03/10 00:48:22;;;;;;;1.65;1.55;;;0.50;99.90;;;;;;5047871;28;20082;-86
2023/03/10 00:50:48;;;;;;;0.20;0.20;;;0.50;99.90;;;;;;5047541;28;20494;-86
2023/03/10 00:53:14;;;;;;;0.57;0.57;;;0.50;99.90;;;;;;5046078;28;20136;-86
2023/03/10 00:55:40;;;;;;;0.30;0.30;;;0.50;99.90;;;;;;5046629;28;20391;-86
2023/03/10 00:58:06;;;;;;;0.00;0.00;;;0.50;99.90;;;;;;5046248;28;20056;-85
2023/03/10 01:00:32;;;;;;;1.17;1.17;;;0.50;99.90;;;;;;5047071;28;20044;-86
2023/03/10 01:02:58;;;;;;;0.45;0.45;;;0.50;99.90;;;;;;5047227;28;20391;-85
2023/03/10 01:05:24;;;;;;;0.80;0.68;;;0.50;99.90;;;;;;5047219;28;20048;-86
2023/03/10 01:07:50;;;;;;;1.05;1.05;;;0.50;99.90;;;;;;5046883;28;20521;-85
2023/03/10 01:10:17;;;;;;;1.20;1.10;;;0.50;99.90;;;;;;5045678;28;20589;-86
2023/03/10 01:12:42;;;;;;;0.00;0.00;;;0.50;99.90;;;;;;5045836;28;20053;-85
2023/03/10 01:15:10;;;;;;;0.82;0.82;;;0.50;99.90;;;;;;5046213;28;20041;-85
2023/03/10 01:17:35;;;;;;;0.55;0.55;;;0.50;99.90;;;;;;5079744;28;20114;-85
2023/03/10 01:20:04;;;;;;;0.13;0.13;;;0.50;99.90;;;;;;5047098;28;20060;-85
2023/03/10 01:22:29;;;;;;;0.32;0.32;;;0.50;99.90;;;;;;5046375;28;20120;-86
2023/03/10 01:24:55;;;;;;;1.85;1.00;;;0.50;99.90;;;;;;5047405;28;20597;-85
2023/03/10 01:27:20;;;;;;;0.20;0.20;;;0.50;99.90;;;;;;5047053;28;20525;-85
2023/03/10 01:29:46;;;;;;;1.77;1.67;;;0.50;99.90;;;;;;5047016;28;20041;-85
2023/03/10 01:32:12;;;;;;;0.28;0.28;;;0.50;99.90;;;;;;5047135;28;20048;-86
2023/03/10 01:34:37;;;;;;;1.20;1.13;;;0.50;99.90;;;;;;5046889;28;20479;-85
2023/03/10 01:37:03;;;;;;;1.25;1.17;;;0.50;99.90;;;;;;5044975;28;20124;-85
2023/03/10 01:39:28;;;;;;;0.55;0.55;;;0.50;99.90;;;;;;5046726;28;20055;-85
2023/03/10 01:41:54;;;;;;;2.58;2.38;;;0.50;99.90;;;;;;5046278;28;20051;-85
2023/03/10 01:44:20;;;;;;;1.60;1.50;;;0.50;99.90;;;;;;5045173;28;20060;-85
2023/03/10 01:46:50;;;;;;;1.67;1.58;;;0.50;99.90;;;;;;5045470;28;20048;-85
2023/03/10 01:49:26;;;;;;;0.55;0.55;;;0.50;99.90;;;;;;5046845;28;20140;-85
2023/03/10 01:52:23;;;;;;;1.88;1.30;;;0.50;99.90;;;;;;5063464;28;20152;-85
2023/03/10 01:54:58;;;;;;;0.15;0.15;;;0.50;99.90;;;;;;5044915;28;20053;-85
2023/03/10 01:57:28;;;;;;;3.00;0.73;;;0.50;99.90;;;;;;5045784;28;20055;-85
2023/03/10 01:59:55;;;;;;;0.57;0.57;;;0.50;99.90;;;;;;5045792;28;20588;-85
2023/03/10 02:02:22;;;;;;;0.22;0.20;;;0.50;99.90;;;;;;5043501;28;20590;-86
2023/03/10 02:04:48;;;;;;;0.43;0.43;;;0.50;99.90;;;;;;5045618;28;20047;-85
2023/03/10 02:07:17;;;;;;;1.40;1.30;;;0.60;99.90;;;;;;5044674;28;20445;-85
2023/03/10 02:09:45;;;;;;;0.60;0.60;;;0.50;99.90;;;;;;5045600;28;20148;-85
2023/03/10 02:12:12;;;;;;;0.38;0.38;;;0.50;99.90;;;;;;5045907;28;20091;-85
2023/03/10 02:14:38;;;;;;;0.40;0.40;;;0.50;99.90;;;;;;5045116;28;20053;-85
2023/03/10 02:17:07;;;;;;;1.83;1.38;;;0.50;99.90;;;;;;5045041;28;20049;-85
2023/03/10 02:19:48;;;;;;;3.50;2.05;;;0.50;99.90;;;;;;5043027;28;20041;-85
2023/03/10 02:22:16;;;;;;;1.80;1.30;;;0.50;99.90;;;;;;5044585;28;20045;-85
2023/03/10 02:25:02;;;;;;;3.10;1.17;;;0.50;99.90;;;;;;5043086;28;20049;-85
2023/03/10 02:27:35;;;;;;;;;;;0.50;99.90;;;;;;5045191;28;20544;-85
2023/03/10 02:30:16;;;;;;;0.63;0.63;;;0.50;99.90;;;;;;5044475;28;19924;-85
2023/03/10 02:32:49;;;;;;;2.13;1.63;;;0.50;99.90;;;;;;5043791;28;20084;-85
2023/03/10 02:35:15;;;;;;;1.48;1.38;;;0.50;99.90;;;;;;5045842;28;20115;-86
2023/03/10 02:37:41;;;;;;;0.00;0.00;;;0.50;99.90;;;;;;5044754;28;20048;-86
2023/03/10 02:40:28;;;;;;;0.75;0.75;;;0.50;99.90;;;;;;5045497;28;20880;-86
2023/03/10 02:42:54;;;;;;;0.35;0.35;;;0.50;99.90;;;;;;5044182;28;20104;-86
2023/03/10 02:45:20;;;;;;;0.13;0.13;;;0.50;99.90;;;;;;5044411;28;20396;-86
2023/03/10 02:47:46;;;;;;;1.50;0.68;;;0.50;99.90;;;;;;5043197;28;20052;-86
2023/03/10 02:50:14;;;;;;;0.25;0.25;;;0.50;99.90;;;;;;5043038;28;20048;-86
2023/03/10 02:52:46;;;;;;;1.27;1.10;;;0.50;99.90;;;;;;5059695;28;20407;-86
2023/03/10 02:55:18;;;;;;;0.10;0.10;;;0.50;99.90;;;;;;5045486;28;20049;-87
2023/03/10 02:57:44;;;;;;;1.63;1.45;;;0.50;99.90;;;;;;5076648;28;20060;-87
2023/03/10 03:00:11;;;;;;;0.10;0.10;;;0.50;99.90;;;;;;5043054;28;20053;-86
2023/03/10 03:02:37;;;;;;;0.70;0.60;;;0.50;99.90;;;;;;5042834;28;20051;-86
2023/03/10 03:05:03;;;;;;;0.10;0.10;;;0.50;99.90;;;;;;5060509;28;20115;-86
2023/03/10 03:07:29;;;;;;;0.22;0.22;;;0.50;99.90;;;;;;5045269;28;20143;-86
2023/03/10 03:09:55;;;;;;;0.40;0.40;;;0.40;99.90;;;;;;5077053;28;20057;-86
2023/03/10 03:12:20;;;;;;;0.13;0.13;;;0.50;99.90;;;;;;5045127;28;20049;-86
2023/03/10 03:14:46;;;;;;;0.43;0.43;;;0.50;99.90;;;;;;5077777;28;20055;-87
2023/03/10 03:17:12;;;;;;;0.30;0.30;;;0.50;99.90;;;;;;5045171;28;20060;-87
2023/03/10 03:19:38;;;;;;;1.45;0.95;;;0.50;99.90;;;;;;5044383;28;20494;-87
2023/03/10 03:22:03;;;;;;;0.08;0.08;;;0.50;99.90;;;;;;5044131;28;20049;-87
2023/03/10 03:24:30;;;;;;;0.63;0.63;;;1.60;99.90;;;;;;5044839;28;20048;-86
2023/03/10 03:26:57;;;;;;;0.28;0.28;;;0.50;99.90;;;;;;5045932;28;20048;-87
2023/03/10 03:29:22;;;;;;;3.65;1.65;;;0.50;99.90;;;;;;5045386;28;20079;-87
2023/03/10 03:31:48;;;;;;;0.35;0.35;;;0.50;99.90;;;;;;5043841;28;20041;-87
2023/03/10 03:34:14;;;;;;;1.27;0.63;;;0.50;99.90;;;;;;5043742;28;20049;-87
2023/03/10 03:36:40;;;;;;;1.85;1.67;;;0.50;99.90;;;;;;5044478;28;20049;-87
2023/03/10 03:39:06;;;;;;;1.17;0.75;;;0.50;99.90;;;;;;5043084;28;20059;-87
2023/03/10 03:41:32;;;;;;;0.00;0.00;;;0.50;99.90;;;;;;5043448;28;20494;-87
2023/03/10 03:43:58;;;;;;;0.57;0.57;;;0.50;99.90;;;;;;5044410;28;20495;-87
2023/03/10 03:46:24;;;;;;;0.10;0.10;;;0.50;99.90;;;;;;4984216;28;1287122;-87
2023/03/10 03:48:50;;;;;;;0.68;0.68;;;0.50;99.90;;;;;;5043968;28;20053;-88
2023/03/10 03:51:15;;;;;;;0.05;0.05;;;0.60;99.90;;;;;;5044381;28;20049;-88
2023/03/10 03:53:41;;;;;;;0.40;0.40;;;0.50;99.90;;;;;;5044183;28;20487;-88
2023/03/10 03:56:07;;;;;;;1.02;0.98;;;0.50;99.90;;;;;;5043810;28;20475;-88
2023/03/10 03:58:33;;;;;;;0.00;0.00;;;0.50;99.90;;;;;;5044705;28;20477;-87
2023/03/10 04:00:59;;;;;;;0.65;0.65;;;0.60;99.90;;;;;;5045460;28;20136;-87
2023/03/10 04:03:24;;;;;;;2.17;1.10;;;0.60;99.90;;;;;;5044123;28;20076;-88
2023/03/10 04:05:50;;;;;;;4.72;2.25;;;0.50;99.90;;;;;;5044504;28;20048;-87
2023/03/10 04:08:16;;;;;;;2.05;1.85;;;0.50;99.90;;;;;;5043650;28;20033;-88
2023/03/10 04:10:41;;;;;;;0.25;0.25;;;0.60;99.90;;;;;;5044505;28;20045;-88
2023/03/10 04:13:07;;;;;;;0.65;0.65;;;0.50;99.90;;;;;;5043990;28;20463;-88
2023/03/10 04:15:34;;;;;;;0.75;0.75;;;0.50;99.90;;;;;;5043974;28;20056;-88
2023/03/10 04:18:00;;;;;;;0.50;0.50;;;0.50;99.90;;;;;;5044261;28;20488;-89
2023/03/10 04:20:26;;;;;;;0.25;0.25;;;0.50;99.90;;;;;;5044184;28;20124;-88
2023/03/10 04:22:51;;;;;;;2.03;1.38;;;0.50;99.90;;;;;;5075682;28;20113;-88
2023/03/10 04:25:17;;;;;;;2.08;1.65;;;0.50;99.90;;;;;;5044589;28;20396;-88
2023/03/10 04:27:43;;;;;;;5.07;2.28;;;0.50;99.90;;;;;;5043531;28;20123;-88
2023/03/10 04:30:11;;;;;;;5.13;2.72;;;0.50;99.90;;;;;;5044430;28;20044;-89
2023/03/10 04:32:37;;;;;;;0.60;0.60;;;0.50;99.90;;;;;;5077601;28;20052;-89
2023/03/10 04:35:04;;;;;;;0.98;0.98;;;0.50;99.90;;;;;;5043822;28;20396;-89
2023/03/10 04:37:30;;;;;;;1.05;0.90;;;0.40;99.90;;;;;;5044732;28;20389;-89
2023/03/10 04:39:56;;;;;;;0.35;0.35;;;0.50;99.90;;;;;;5045635;28;20041;-89
2023/03/10 04:42:22;;;;;;;1.17;1.08;;;0.50;99.90;;;;;;5044804;28;20041;-90
2023/03/10 04:44:49;;;;;;;0.85;0.85;;;0.50;99.90;;;;;;5049747;28;20037;-91
2023/03/10 04:47:15;;;;;;;0.85;0.85;;;0.50;99.90;;;;;;5048713;28;20044;-91
2023/03/10 04:49:41;;;;;;;0.45;0.45;;;0.50;99.90;;;;;;5050358;28;20488;-91
2023/03/10 04:52:06;;;;;;;1.88;1.75;;;0.40;99.90;;;;;;5049556;28;20446;-91
2023/03/10 04:54:32;;;;;;;1.27;1.17;;;0.40;99.90;;;;;;5050388;28;20078;-91
2023/03/10 04:56:58;;;;;;;4.63;1.63;;;0.40;99.90;;;;;;5049337;28;20048;-90
2023/03/10 04:59:23;;;;;;;0.47;0.47;;;0.40;99.90;;;;;;5048508;28;20449;-90
2023/03/10 05:01:51;;;;;;;0.57;0.57;;;0.40;99.90;;;;;;5031729;28;20053;-91
2023/03/10 05:04:17;;;;;;;0.73;0.73;;;0.40;99.90;;;;;;5049698;28;20558;-90
2023/03/10 05:06:42;;;;;;;0.98;0.98;;;0.40;99.90;;;;;;5031452;28;20132;-89
2023/03/10 05:09:08;;;;;;;0.77;0.77;;;0.40;99.90;;;;;;5064224;28;20072;-89
2023/03/10 05:11:34;;;;;;;11.50;3.28;;;0.40;99.90;;;;;;5080621;28;20077;-89
2023/03/10 05:13:59;;;;;;;2.05;1.08;;;0.40;99.90;;;;;;5047220;28;20067;-89
2023/03/10 05:16:25;;;;;;;0.47;0.47;;;0.40;99.90;;;;;;5063433;28;20510;-89
2023/03/10 05:18:51;;;;;;;1.85;1.75;;;0.40;99.90;;;;;;5080582;28;20367;-88
2023/03/10 05:21:17;;;;;;;1.40;1.30;;;0.40;99.90;;;;;;5046304;28;20076;-88
2023/03/10 05:23:42;;;;;;;2.22;2.03;;;0.40;99.90;;;;;;5047867;28;20072;-88
2023/03/10 05:26:09;;;;;;;0.90;0.90;;;0.40;99.90;;;;;;5048025;28;20041;-88
2023/03/10 05:28:35;;;;;;;2.22;1.67;;;0.40;99.90;;;;;;5062829;28;20047;-88
2023/03/10 05:31:06;;;;;;;0.30;0.30;;;0.40;99.90;;;;;;5049104;28;20041;-87
2023/03/10 05:33:31;;;;;;;1.17;1.02;;;0.40;99.90;;;;;;5048352;28;20364;-88
2023/03/10 05:35:57;;;;;;;0.90;0.90;;;0.40;99.90;;;;;;5048296;28;20055;-88
2023/03/10 05:38:23;;;;;;;1.45;1.35;;;0.40;99.90;;;;;;5048085;28;20542;-87
2023/03/10 05:40:48;;;;;;;2.38;2.17;;;0.40;99.90;;;;;;5047536;28;20041;-88
2023/03/10 05:43:14;;;;;;;5.28;2.53;;;0.40;99.90;;;;;;5047742;28;20083;-88
2023/03/10 05:45:40;;;;;;;4.50;3.17;;;1.20;99.90;;;;;;5046827;28;20136;-88
2023/03/10 05:48:05;;;;;;;0.63;0.63;;;0.40;99.90;;;;;;5047085;28;20053;-88
2023/03/10 05:50:31;;;;;;;0.57;0.57;;;0.40;99.90;;;;;;5048002;28;20079;-88
2023/03/10 05:52:57;;;;;;;0.20;0.20;;;0.40;99.90;;;;;;5047700;28;20056;-89
2023/03/10 05:55:23;;;;;;;0.82;0.82;;;0.40;99.90;;;;;;5046632;28;20040;-88
2023/03/10 05:57:49;;;;;;;5.68;2.17;;;0.40;99.90;;;;;;5047826;28;20288;-88
2023/03/10 06:00:16;;;;;;;0.40;0.40;;;0.40;99.90;;;;;;5079843;28;20056;-87
2023/03/10 06:02:41;;;;;;;0.90;0.90;;;0.40;99.90;;;;;;5049702;28;20600;-88
2023/03/10 06:05:10;;;;;;;1.92;1.80;;;1.00;99.90;;;;;;5046827;28;20079;-87
2023/03/10 06:07:36;;;;;;;4.38;3.95;;;0.40;99.90;;;;;;5046508;28;20402;-87
2023/03/10 06:10:02;;;;;;;0.90;0.90;;;0.40;99.90;;;;;;5045219;28;20041;-86
2023/03/10 06:12:30;;;;;;;1.02;0.95;;;0.40;99.90;;;;;;5078820;28;20202;-87
2023/03/10 06:14:56;;;;;;;1.50;1.40;;;0.40;99.90;;;;;;5046769;28;20076;-86
2023/03/10 06:17:21;;;;;;;0.35;0.30;;;0.40;99.90;;;;;;5057590;28;20017;-86
2023/03/10 06:19:47;;;;;;;4.53;2.22;;;0.40;99.90;;;;;;5070789;28;20052;-86
2023/03/10 06:22:13;;;;;;;1.05;1.00;;;0.40;99.90;;;;;;5064822;28;20052;-86
2023/03/10 06:24:39;;;;;;;2.45;2.25;;;0.40;99.90;;;;;;5069863;28;20061;-85
2023/03/10 06:27:04;;;;;;;0.70;0.70;;;0.40;99.90;;;;;;5063155;28;20074;-85
2023/03/10 06:29:30;;;;;;;1.92;1.75;;;0.40;99.90;;;;;;5047163;28;20047;-85
2023/03/10 06:31:56;;;;;;;0.90;0.75;;;0.40;99.90;;;;;;5029166;28;20060;-85
2023/03/10 06:34:21;;;;;;;0.98;0.70;;;0.40;99.90;;;;;;5043525;28;20048;-86
2023/03/10 06:36:47;;;;;;;3.78;1.38;;;0.40;99.90;;;;;;5044194;28;20198;-85
2023/03/10 06:39:13;;;;;;;0.68;0.65;;;0.40;99.90;;;;;;5074646;28;20045;-85
2023/03/10 06:41:38;;;;;;;0.38;0.38;;;0.40;99.90;;;;;;5042048;28;20047;-85
2023/03/10 06:44:04;;;;;;;0.98;0.98;;;0.40;99.90;;;;;;5039844;28;20122;-85
2023/03/10 06:46:30;;;;;;;3.72;1.98;;;0.40;99.90;;;;;;5041190;28;20136;-85
2023/03/10 06:48:56;;;;;;;0.15;0.15;;;0.40;99.90;;;;;;5041712;28;20577;-85
2023/03/10 06:51:22;;;;;;;1.20;0.90;;;0.40;99.90;;;;;;5040303;28;20048;-85
2023/03/10 06:53:48;;;;;;;0.57;0.57;;;0.40;99.90;;;;;;5039742;28;20153;-84
2023/03/10 06:56:16;;;;;;;0.70;0.70;;;0.40;99.90;;;;;;5041982;28;20493;-85
2023/03/10 06:58:43;;;;;;;1.08;0.40;;;0.40;99.90;;;;;;5036510;28;20090;-85
2023/03/10 07:01:29;;;;;;;0.57;0.57;;;0.40;99.90;;;;;;5041532;28;20050;-85
2023/03/10 07:03:55;;;;;;;0.13;0.13;;;0.40;99.90;;;;;;5041092;28;20053;-84
2023/03/10 07:06:21;;;;;;;0.05;0.05;;;0.40;99.90;;;;;;5042881;28;20213;-85
2023/03/10 07:08:47;;;;;;;1.27;0.35;;;0.50;99.90;;;;;;5042798;28;20080;-84
2023/03/10 07:11:13;;;;;;;0.28;0.28;;;0.50;99.90;;;;;;5041392;28;20080;-84
2023/03/10 07:13:39;;;;;;;0.00;0.00;;;0.50;99.90;;;;;;5042640;28;20539;-84
2023/03/10 07:16:05;;;;;;;2.28;2.00;;;0.50;99.90;;;;;;5041749;28;20053;-84
2023/03/10 07:18:31;;;;;;;1.73;1.63;;;0.50;99.90;;;;;;5041005;28;20513;-84
2023/03/10 07:20:58;;;;;;;0.43;0.43;;;0.50;99.90;;;;;;5040883;28;20052;-83
2023/03/10 07:23:24;;;;;;;0.70;0.70;;;0.60;99.90;;;;;;5042869;28;20123;-84
2023/03/10 07:25:55;;;;;;;3.92;2.72;;;0.60;99.90;;;;;;5040498;28;20053;-84
2023/03/10 07:28:25;;;;;;;1.70;1.60;;;0.60;99.90;;;;;;5041790;28;20091;-83
2023/03/10 07:30:52;;;;;;;1.42;0.77;;;0.60;99.90;;;;;;5042318;28;20635;-84
2023/03/10 07:33:18;;;;;;;1.55;1.13;;;0.60;99.90;;;;;;5040904;28;20186;-83
2023/03/10 07:35:44;;;;;;;0.03;0.03;;;0.60;99.90;;;;;;5043211;28;20601;-84
2023/03/10 07:38:10;;;;;;;1.88;1.45;;;0.60;99.90;;;;;;5024895;28;20137;-84
2023/03/10 07:40:38;;;;;;;0.45;0.45;;;0.60;99.90;;;;;;5041063;28;20573;-84
2023/03/10 07:43:04;;;;;;;1.27;1.17;;;0.70;99.90;;;;;;5040784;28;20108;-84
2023/03/10 07:45:31;;;;;;;0.43;0.43;;;0.70;99.90;;;;;;5074823;28;20045;-85
2023/03/10 07:47:58;;;;;;;3.42;1.75;;;0.70;99.90;;;;;;5041016;28;20052;-84
2023/03/10 07:50:24;;;;;;;0.63;0.63;;;0.70;99.90;;;;;;5042402;28;20190;-84
2023/03/10 07:52:50;;;;;;;0.90;0.85;;;0.70;99.90;;;;;;5040879;28;20056;-84
2023/03/10 07:55:17;;;;;;;0.15;0.15;;;0.70;99.90;;;;;;5039483;28;20411;-84
2023/03/10 07:57:43;;;;;;;0.85;0.85;;;0.70;99.90;;;;;;5039871;28;20507;-85
2023/03/10 08:00:09;;;;;;;3.10;2.30;;;0.70;99.90;;;;;;5040057;28;20055;-84
2023/03/10 08:02:35;;;;;;;1.55;1.35;;;0.70;99.90;;;;;;5039255;28;20045;-84
2023/03/10 08:05:01;;;;;;;2.30;1.90;;;0.70;99.90;;;;;;5040152;28;20101;-85
2023/03/10 08:07:26;;;;;;;1.58;1.48;;;0.70;99.90;;;;;;5038551;28;20056;-84
2023/03/10 08:09:53;;;;;;;0.20;0.20;;;0.70;99.90;;;;;;5038614;28;20546;-84
2023/03/10 08:12:21;;;;;;;0.75;0.75;;;0.70;99.90;;;;;;5038020;28;20052;-84
2023/03/10 08:14:48;;;;;;;1.73;1.63;;;0.80;99.90;;;;;;5038909;28;20110;-84
2023/03/10 08:17:18;;;;;;;0.73;0.73;;;0.80;99.90;;;;;;5040384;28;20122;-84
2023/03/10 08:19:44;;;;;;;0.75;0.75;;;0.80;99.90;;;;;;5058402;28;20053;-85
2023/03/10 08:22:10;;;;;;;0.20;0.20;;;0.80;99.90;;;;;;5038622;28;20049;-85
2023/03/10 08:24:36;;;;;;;0.65;0.65;;;0.80;99.90;;;;;;5043389;28;20044;-85
2023/03/10 08:27:03;;;;;;;0.10;0.10;;;0.80;99.90;;;;;;5033720;28;20045;-84
2023/03/10 08:29:28;;;;;;;0.70;0.60;;;0.80;99.90;;;;;;5034922;28;20502;-84
2023/03/10 08:31:54;;;;;;;0.80;0.77;;;0.80;99.90;;;;;;5033993;28;20055;-85
2023/03/10 08:34:20;;;;;;;1.02;1.02;;;0.90;99.90;;;;;;5032009;28;20044;-84
2023/03/10 08:36:45;;;;;;;0.68;0.68;;;0.90;99.90;;;;;;5066270;28;20089;-84
2023/03/10 08:39:12;;;;;;;2.08;1.88;;;0.90;99.90;;;;;;5043361;28;20177;-83
2023/03/10 08:41:45;;;;;;;2.80;1.70;;;0.90;99.90;;;;;;5063722;28;20053;-83
2023/03/10 08:44:14;;;;;;;1.42;1.30;;;0.90;99.90;;;;;;5041384;28;20520;-83
2023/03/10 08:46:42;;;;;;;0.47;0.45;;;1.00;99.90;;;;;;5046668;28;20131;-84
2023/03/10 08:49:08;;;;;;;2.72;1.75;;;1.00;99.90;;;;;;5044735;28;20041;-83
2023/03/10 08:51:34;;;;;;;0.38;0.38;;;1.00;99.90;;;;;;5045956;28;20053;-83
2023/03/10 08:54:01;;;;;;;0.57;0.57;;;0.90;99.90;;;;;;5072325;28;20684;-83
2023/03/10 08:56:27;;;;;;;0.93;0.80;;;1.00;99.90;;;;;;5048546;28;20087;-83
2023/03/10 08:58:56;;;;;;;0.52;0.52;;;1.00;99.90;;;;;;5031828;28;20095;-83
2023/03/10 09:01:22;;;;;;;0.70;0.65;;;1.00;99.90;;;;;;5082224;28;20092;-82
2023/03/10 09:03:48;;;;;;;2.63;1.60;;;1.00;99.90;;;;;;5082617;28;20064;-83
2023/03/10 09:06:14;;;;;;;1.67;1.58;;;1.00;99.90;;;;;;5049935;28;20049;-83
2023/03/10 09:08:40;;;;;;;0.60;0.60;;;1.10;99.90;;;;;;5082257;28;20110;-83
2023/03/10 09:11:07;;;;;;;0.50;0.50;;;1.10;99.90;;;;;;5047923;28;20060;-83
2023/03/10 09:13:33;;;;;;;1.90;1.80;;;1.10;99.90;;;;;;5047863;28;20041;-83
2023/03/10 09:15:59;;;;;;;1.05;1.00;;;1.10;99.90;;;;;;5048835;28;20040;-83
2023/03/10 09:18:25;;;;;;;2.10;2.00;;;1.10;99.90;;;;;;5046681;28;20088;-83
2023/03/10 09:20:51;;;;;;;0.63;0.63;;;1.10;99.90;;;;;;5047432;28;20049;-83
2023/03/10 09:23:18;;;;;;;1.23;1.13;;;1.10;99.90;;;;;;5077265;28;20091;-83
2023/03/10 09:25:44;;;;;;;0.45;0.45;;;1.10;99.90;;;;;;5047626;28;20053;-82
2023/03/10 09:28:10;;;;;;;1.17;1.08;;;1.10;99.90;;;;;;5048570;28;20662;-83
2023/03/10 09:30:37;;;;;;;1.00;0.98;;;1.10;99.90;;;;;;5046285;28;20088;-84
2023/03/10 09:33:05;;;;;;;0.60;0.60;;;1.10;99.90;;;;;;5043140;28;20041;-84
2023/03/10 09:35:31;;;;;;;3.03;2.58;;;1.20;99.90;;;;;;5042195;28;20078;-84
2023/03/10 09:37:56;;;;;;;3.05;1.92;;;1.10;99.90;;;;;;5033317;28;20041;-84
2023/03/10 09:40:23;;;;;;;1.33;1.23;;;1.20;99.90;;;;;;5026867;28;20041;-84
2023/03/10 09:43:05;;;;;;;0.80;0.80;;;1.20;99.90;;;;;;5068703;28;20468;-84
2023/03/10 09:45:43;;;;;;;0.40;0.40;;;1.30;99.90;;;;;;5043309;28;20060;-84
2023/03/10 09:48:14;;;;;;;2.97;1.92;;;1.40;99.90;;;;;;5041751;28;20085;-84
2023/03/10 09:50:48;;;;;;;0.57;0.57;;;1.30;99.90;;;;;;5043104;28;20498;-84
2023/03/10 09:53:33;;;;;;;4.35;1.67;;;1.40;99.90;;;;;;5042775;28;20048;-84
2023/03/10 09:55:59;;;;;;;1.05;1.05;;;1.40;99.90;;;;;;5039843;28;20405;-84
2023/03/10 09:58:37;;;;;;;3.58;3.25;;;1.30;99.90;;;;;;5043344;28;20041;-84
2023/03/10 10:01:05;;;;;;;2.00;1.90;;;1.30;99.90;;;;;;5043083;28;20055;-84
2023/03/10 10:03:43;;;;;;;1.15;1.05;;;1.30;99.90;;;;;;5043414;28;20058;-84
2023/03/10 10:06:17;;;;;;;1.65;1.42;;;1.30;99.90;;;;;;5042048;28;20475;-84
2023/03/10 10:08:57;;;;;;;1.30;1.20;;;1.30;99.90;;;;;;5042205;28;20506;-84
2023/03/10 10:11:22;;;;;;;2.53;1.23;;;1.40;99.90;;;;;;5043585;28;20084;-84
2023/03/10 10:13:54;;;;;;;0.95;0.93;;;1.40;99.90;;;;;;5043317;28;20102;-84
2023/03/10 10:16:42;;;;;;;0.52;0.52;;;1.40;99.90;;;;;;5042159;28;20033;-84
2023/03/10 10:19:23;;;;;;;1.45;1.35;;;1.30;99.90;;;;;;5043552;28;20541;-84
2023/03/10 10:22:10;;;;;;;0.45;0.43;;;1.30;99.90;;;;;;5042282;28;20525;-84
2023/03/10 10:24:37;;;;;;;0.20;0.20;;;1.30;99.90;;;;;;5044062;28;20146;-84
2023/03/10 10:27:03;;;;;;;1.48;1.38;;;1.30;99.90;;;;;;5043501;28;20485;-84
2023/03/10 10:29:35;;;;;;;0.43;0.43;;;1.30;99.90;;;;;;5042254;28;20494;-83
2023/03/10 10:32:10;;;;;;;4.15;2.10;;;1.30;99.90;;;;;;5026147;28;20070;-83
2023/03/10 10:34:41;;;;;;;0.77;0.77;;;1.20;99.90;;;;;;5044049;28;20051;-84
2023/03/10 10:37:41;;;;;;;1.05;0.95;;;1.20;99.90;;;;;;5046874;28;20534;-83
2023/03/10 10:40:27;;;;;;;1.02;0.93;;;1.20;99.90;;;;;;5047261;28;20049;-83
2023/03/10 10:42:54;;;;;;;0.10;0.10;;;1.20;99.90;;;;;;5045627;28;20049;-83
2023/03/10 10:45:29;;;;;;;2.28;1.05;;;1.10;99.90;;;;;;5044758;28;20102;-83
2023/03/10 10:47:55;;;;;;;0.13;0.13;;;1.20;99.90;;;;;;5045140;28;20532;-84
2023/03/10 10:50:32;;;;;;;3.65;2.83;;;1.20;99.90;;;;;;5043829;28;20056;-84
2023/03/10 10:53:19;;;;;;;0.20;0.20;;;1.30;99.90;;;;;;5042706;28;20053;-83
2023/03/10 10:55:56;;;;;;;0.85;0.85;;;1.40;99.90;;;;;;5046031;28;20048;-83
2023/03/10 10:58:29;;;;;;;4.10;0.88;;;1.40;99.90;;;;;;5047227;28;20128;-83
2023/03/10 11:01:07;;;;;;;0.95;0.95;;;1.40;99.90;;;;;;5045472;28;20041;-83
2023/03/10 11:03:36;;;;;;;1.45;1.35;;;1.40;99.90;;;;;;5045589;28;20152;-83
2023/03/10 11:06:27;;;;;;;0.10;0.10;;;1.40;99.90;;;;;;5046458;28;20506;-83
2023/03/10 11:09:17;;;;;;;0.82;0.82;;;1.40;99.90;;;;;;5044336;28;20455;-83
2023/03/10 11:11:49;;;;;;;1.48;1.33;;;1.40;99.90;;;;;;5043765;28;20041;-83
2023/03/10 11:14:39;;;;;;;1.42;1.33;;;1.20;99.90;;;;;;5075305;28;20100;-84
2023/03/10 11:17:20;;;;;;;0.57;0.57;;;1.10;99.90;;;;;;5042507;28;20114;-84
2023/03/10 11:20:14;;;;;;;0.60;0.60;;;1.10;99.90;;;;;;5041999;28;20087;-84
2023/03/10 11:23:09;;;;;;;0.95;0.93;;;1.10;99.90;;;;;;5039696;28;20156;-84
2023/03/10 11:25:46;;;;;;;3.00;1.30;;;1.10;99.90;;;;;;5039132;28;20383;-84
2023/03/10 11:28:21;;;;;;;0.20;0.20;;;1.10;99.90;;;;;;5038672;28;20405;-84
2023/03/10 11:30:56;;;;;;;0.95;0.90;;;1.10;99.90;;;;;;5037886;28;20053;-84
2023/03/10 11:33:45;;;;;;;3.70;0.75;;;1.10;99.90;;;;;;5039569;28;20503;-84
2023/03/10 11:36:41;;;;;;;1.73;1.05;;;1.10;99.90;;;;;;5037507;28;20544;-84
2023/03/10 11:39:24;;;;;;;0.22;0.22;;;1.00;99.90;;;;;;5038299;28;20060;-85
2023/03/10 11:41:59;;;;;;;1.00;0.98;;;1.00;99.90;;;;;;5038185;28;20554;-84
2023/03/10 11:44:28;;;;;;;1.15;1.05;;;0.90;99.90;;;;;;5038583;28;20496;-85
2023/03/10 11:47:17;;;;;;;1.30;0.82;;;0.90;99.90;;;;;;5039369;28;20501;-84
2023/03/10 11:49:46;;;;;;;0.70;0.70;;;0.90;99.90;;;;;;5026566;28;20053;-85
2023/03/10 11:52:23;;;;;;;0.68;0.68;;;0.90;99.90;;;;;;5042814;28;20053;-85
2023/03/10 11:55:06;;;;;;;0.47;0.47;;;0.90;99.90;;;;;;5025187;28;20060;-85
2023/03/10 11:57:42;;;;;;;0.55;0.55;;;0.90;99.90;;;;;;5021664;28;20144;-84
2023/03/10 12:00:32;;;;;;;0.50;0.50;;;0.80;99.90;;;;;;5023779;28;20073;-84
2023/03/10 12:03:13;;;;;;;1.92;1.33;;;0.80;99.90;;;;;;5060859;28;20541;-84
2023/03/10 12:05:51;;;;;;;1.60;1.50;;;0.80;99.90;;;;;;5043260;28;20052;-84
2023/03/10 12:08:21;;;;;;;1.77;0.85;;;0.80;99.90;;;;;;5041720;28;20495;-84
2023/03/10 12:10:48;;;;;;;0.10;0.10;;;0.70;99.90;;;;;;5043060;28;20041;-84
2023/03/10 12:13:25;;;;;;;0.55;0.55;;;0.80;99.90;;;;;;5041412;28;20116;-84
2023/03/10 12:15:55;;;;;;;0.65;0.65;;;0.70;99.90;;;;;;5041956;28;20140;-84
2023/03/10 12:18:21;;;;;;;1.50;0.50;;;0.70;99.90;;;;;;5066566;28;20060;-84
2023/03/10 12:21:06;;;;;;;1.23;1.13;;;0.60;99.90;;;;;;5042332;28;20052;-84
2023/03/10 12:23:40;;;;;;;2.60;1.65;;;0.60;99.90;;;;;;5043726;28;20056;-84
2023/03/10 12:26:06;;;;;;;0.52;0.52;;;0.60;99.90;;;;;;5041055;28;20112;-84
2023/03/10 12:28:33;;;;;;;0.93;0.93;;;0.60;99.90;;;;;;5043308;28;20045;-84
2023/03/10 12:31:22;;;;;;;0.80;0.80;;;0.60;99.90;;;;;;5075747;28;20053;-85
2023/03/10 12:33:49;;;;;;;0.15;0.15;;;0.60;99.90;;;;;;5076581;28;20057;-85
2023/03/10 12:36:31;;;;;;;0.10;0.10;;;0.60;99.90;;;;;;5025165;28;20114;-84
2023/03/10 12:39:17;;;;;;;1.25;0.60;;;0.60;99.90;;;;;;5041043;28;20088;-85
2023/03/10 12:41:51;;;;;;;1.95;1.67;;;0.70;99.90;;;;;;5043518;28;20048;-84
2023/03/10 12:44:28;;;;;;;3.83;1.48;;;0.70;99.90;;;;;;5041389;28;20072;-85
2023/03/10 12:47:06;;;;;;;0.68;0.68;;;0.70;99.90;;;;;;5043420;28;20056;-85
2023/03/10 12:49:41;;;;;;;1.17;0.98;;;0.70;99.90;;;;;;5043471;28;20086;-85
2023/03/10 12:52:19;;;;;;;0.82;0.82;;;0.70;99.90;;;;;;5043189;28;20049;-85
2023/03/10 12:54:52;;;;;;;0.57;0.57;;;0.70;99.90;;;;;;5042081;28;20525;-85
2023/03/10 12:57:38;;;;;;;1.85;1.75;;;0.70;99.90;;;;;;5044758;28;20063;-86
2023/03/10 13:00:19;;;;;;;0.63;0.63;;;0.70;99.90;;;;;;5042900;28;20159;-86
2023/03/10 13:03:40;;;;;;;0.50;0.50;;;0.70;99.90;;;;;;5043771;28;20512;-87
2023/03/10 13:06:12;;;;;;;0.32;0.32;;;0.70;99.90;;;;;;5003721;28;20061;-86
2023/03/10 13:08:51;;;;;;;1.20;1.10;;;0.70;99.90;;;;;;5043547;28;20056;-86
2023/03/10 13:11:38;;;;;;;0.77;0.77;;;0.70;99.90;;;;;;5041978;28;20037;-87